sensor_id;sensor_type;location;lat;lon;timestamp;temperature;humidity
67502;SHT30;54349;52.528;19.760;2023-04-22T00:00:54;25.06;41.37
67502;SHT30;54349;52.528;19.760;2023-04-22T00:03:24;25.06;41.37
67502;SHT30;54349;52.528;19.760;2023-04-22T00:05:54;25.07;41.33
67502;SHT30;54349;52.528;19.760;2023-04-22T00:08:22;25.08;41.32
67502;SHT30;54349;52.528;19.760;2023-04-22T00:10:52;25.08;41.30
67502;SHT30;54349;52.528;19.760;2023-04-22T00:13:20;25.08;41.31
67502;SHT30;54349;52.528;19.760;2023-04-22T00:15:48;25.09;41.34
67502;SHT30;54349;52.528;19.760;2023-04-22T00:18:17;25.09;41.36
67502;SHT30;54349;52.528;19.760;2023-04-22T00:20:46;25.10;41.36
67502;SHT30;54349;52.528;19.760;2023-04-22T00:23:14;25.10;41.42
67502;SHT30;54349;52.528;19.760;2023-04-22T00:25:42;25.10;41.50
67502;SHT30;54349;52.528;19.760;2023-04-22T00:28:10;25.10;41.47
67502;SHT30;54349;52.528;19.760;2023-04-22T00:30:39;25.10;41.36
67502;SHT30;54349;52.528;19.760;2023-04-22T00:33:07;25.08;41.22
67502;SHT30;54349;52.528;19.760;2023-04-22T00:35:36;25.05;41.08
67502;SHT30;54349;52.528;19.760;2023-04-22T00:38:04;25.01;40.98
67502;SHT30;54349;52.528;19.760;2023-04-22T00:40:33;24.98;40.89
67502;SHT30;54349;52.528;19.760;2023-04-22T00:43:01;24.96;40.79
67502;SHT30;54349;52.528;19.760;2023-04-22T00:45:30;24.93;40.70
67502;SHT30;54349;52.528;19.760;2023-04-22T00:47:58;24.90;40.64
67502;SHT30;54349;52.528;19.760;2023-04-22T00:50:28;24.88;40.61
67502;SHT30;54349;52.528;19.760;2023-04-22T00:52:56;24.85;40.54
67502;SHT30;54349;52.528;19.760;2023-04-22T00:55:24;24.82;40.48
67502;SHT30;54349;52.528;19.760;2023-04-22T00:57:53;24.80;40.42
67502;SHT30;54349;52.528;19.760;2023-04-22T01:00:24;24.76;40.38
67502;SHT30;54349;52.528;19.760;2023-04-22T01:02:54;24.74;40.32
67502;SHT30;54349;52.528;19.760;2023-04-22T01:05:24;24.72;40.29
67502;SHT30;54349;52.528;19.760;2023-04-22T01:07:56;24.69;40.22
67502;SHT30;54349;52.528;19.760;2023-04-22T01:10:24;24.67;40.19
67502;SHT30;54349;52.528;19.760;2023-04-22T01:12:52;24.64;40.18
67502;SHT30;54349;52.528;19.760;2023-04-22T01:15:20;24.61;40.12
67502;SHT30;54349;52.528;19.760;2023-04-22T01:17:48;24.58;40.08
67502;SHT30;54349;52.528;19.760;2023-04-22T01:20:20;24.56;40.02
67502;SHT30;54349;52.528;19.760;2023-04-22T01:22:50;24.53;39.99
67502;SHT30;54349;52.528;19.760;2023-04-22T01:25:23;24.52;39.97
67502;SHT30;54349;52.528;19.760;2023-04-22T01:27:54;24.49;39.92
67502;SHT30;54349;52.528;19.760;2023-04-22T01:30:23;24.45;39.90
67502;SHT30;54349;52.528;19.760;2023-04-22T01:32:52;24.43;39.86
67502;SHT30;54349;52.528;19.760;2023-04-22T01:35:20;24.40;39.83
67502;SHT30;54349;52.528;19.760;2023-04-22T01:37:49;24.37;39.80
67502;SHT30;54349;52.528;19.760;2023-04-22T01:40:17;24.35;39.79
67502;SHT30;54349;52.528;19.760;2023-04-22T01:42:49;24.33;39.76
67502;SHT30;54349;52.528;19.760;2023-04-22T01:45:18;24.30;39.73
67502;SHT30;54349;52.528;19.760;2023-04-22T01:47:46;24.27;39.71
67502;SHT30;54349;52.528;19.760;2023-04-22T01:50:14;24.25;39.71
67502;SHT30;54349;52.528;19.760;2023-04-22T01:52:49;24.23;39.64
67502;SHT30;54349;52.528;19.760;2023-04-22T01:55:19;24.20;39.62
67502;SHT30;54349;52.528;19.760;2023-04-22T01:57:48;24.19;39.60
67502;SHT30;54349;52.528;19.760;2023-04-22T02:00:17;24.16;39.60
67502;SHT30;54349;52.528;19.760;2023-04-22T02:02:47;24.14;39.57
67502;SHT30;54349;52.528;19.760;2023-04-22T02:05:16;24.12;39.60
67502;SHT30;54349;52.528;19.760;2023-04-22T02:07:45;24.09;39.57
67502;SHT30;54349;52.528;19.760;2023-04-22T02:10:16;24.07;39.57
67502;SHT30;54349;52.528;19.760;2023-04-22T02:12:44;24.05;39.51
67502;SHT30;54349;52.528;19.760;2023-04-22T02:15:13;24.02;39.51
67502;SHT30;54349;52.528;19.760;2023-04-22T02:17:42;23.99;39.50
67502;SHT30;54349;52.528;19.760;2023-04-22T02:20:11;23.98;39.48
67502;SHT30;54349;52.528;19.760;2023-04-22T02:22:41;23.96;39.45
67502;SHT30;54349;52.528;19.760;2023-04-22T02:25:11;23.93;39.43
67502;SHT30;54349;52.528;19.760;2023-04-22T02:27:42;23.90;39.42
67502;SHT30;54349;52.528;19.760;2023-04-22T02:30:11;23.88;39.40
67502;SHT30;54349;52.528;19.760;2023-04-22T02:32:39;23.87;39.41
67502;SHT30;54349;52.528;19.760;2023-04-22T02:35:09;23.84;39.40
67502;SHT30;54349;52.528;19.760;2023-04-22T02:37:38;23.81;39.39
67502;SHT30;54349;52.528;19.760;2023-04-22T02:40:06;23.79;39.32
67502;SHT30;54349;52.528;19.760;2023-04-22T02:42:35;23.79;39.33
67502;SHT30;54349;52.528;19.760;2023-04-22T02:45:04;23.76;39.36
67502;SHT30;54349;52.528;19.760;2023-04-22T02:47:33;23.75;39.34
67502;SHT30;54349;52.528;19.760;2023-04-22T02:50:01;23.74;39.32
67502;SHT30;54349;52.528;19.760;2023-04-22T02:52:30;23.72;39.30
67502;SHT30;54349;52.528;19.760;2023-04-22T02:55:01;23.70;39.30
67502;SHT30;54349;52.528;19.760;2023-04-22T02:57:29;23.68;39.30
67502;SHT30;54349;52.528;19.760;2023-04-22T02:59:57;23.67;39.25
67502;SHT30;54349;52.528;19.760;2023-04-22T03:02:26;23.64;39.19
67502;SHT30;54349;52.528;19.760;2023-04-22T03:05:11;23.61;39.13
67502;SHT30;54349;52.528;19.760;2023-04-22T03:07:39;23.59;39.10
67502;SHT30;54349;52.528;19.760;2023-04-22T03:10:07;23.57;39.12
67502;SHT30;54349;52.528;19.760;2023-04-22T03:12:36;23.54;39.11
67502;SHT30;54349;52.528;19.760;2023-04-22T03:15:04;23.51;39.04
67502;SHT30;54349;52.528;19.760;2023-04-22T03:17:34;23.50;39.01
67502;SHT30;54349;52.528;19.760;2023-04-22T03:20:06;23.47;39.00
67502;SHT30;54349;52.528;19.760;2023-04-22T03:22:35;23.46;39.00
67502;SHT30;54349;52.528;19.760;2023-04-22T03:25:05;23.43;39.02
67502;SHT30;54349;52.528;19.760;2023-04-22T03:27:34;23.43;39.05
67502;SHT30;54349;52.528;19.760;2023-04-22T03:30:03;23.40;39.06
67502;SHT30;54349;52.528;19.760;2023-04-22T03:32:32;23.40;39.07
67502;SHT30;54349;52.528;19.760;2023-04-22T03:35:13;23.38;39.00
67502;SHT30;54349;52.528;19.760;2023-04-22T03:37:41;23.36;38.89
67502;SHT30;54349;52.528;19.760;2023-04-22T03:40:11;23.35;38.76
67502;SHT30;54349;52.528;19.760;2023-04-22T03:42:41;23.36;38.72
67502;SHT30;54349;52.528;19.760;2023-04-22T03:45:09;23.36;38.65
67502;SHT30;54349;52.528;19.760;2023-04-22T03:47:42;23.37;38.58
67502;SHT30;54349;52.528;19.760;2023-04-22T03:50:18;23.36;38.56
67502;SHT30;54349;52.528;19.760;2023-04-22T03:52:47;23.38;38.49
67502;SHT30;54349;52.528;19.760;2023-04-22T03:55:18;23.39;38.35
67502;SHT30;54349;52.528;19.760;2023-04-22T03:57:46;23.40;38.27
67502;SHT30;54349;52.528;19.760;2023-04-22T04:00:14;23.43;38.22
67502;SHT30;54349;52.528;19.760;2023-04-22T04:02:45;23.44;38.22
67502;SHT30;54349;52.528;19.760;2023-04-22T04:05:15;23.44;38.18
67502;SHT30;54349;52.528;19.760;2023-04-22T04:07:44;23.43;38.19
67502;SHT30;54349;52.528;19.760;2023-04-22T04:10:12;23.43;38.21
67502;SHT30;54349;52.528;19.760;2023-04-22T04:12:41;23.41;38.22
67502;SHT30;54349;52.528;19.760;2023-04-22T04:15:09;23.39;38.28
67502;SHT30;54349;52.528;19.760;2023-04-22T04:17:39;23.38;38.29
67502;SHT30;54349;52.528;19.760;2023-04-22T04:20:07;23.38;38.31
67502;SHT30;54349;52.528;19.760;2023-04-22T04:22:38;23.36;38.33
67502;SHT30;54349;52.528;19.760;2023-04-22T04:25:07;23.34;38.39
67502;SHT30;54349;52.528;19.760;2023-04-22T04:27:37;23.33;38.40
67502;SHT30;54349;52.528;19.760;2023-04-22T04:30:06;23.31;38.46
67502;SHT30;54349;52.528;19.760;2023-04-22T04:32:40;23.29;38.47
67502;SHT30;54349;52.528;19.760;2023-04-22T04:35:11;23.28;38.55
67502;SHT30;54349;52.528;19.760;2023-04-22T04:37:43;23.27;38.54
67502;SHT30;54349;52.528;19.760;2023-04-22T04:40:14;23.26;38.57
67502;SHT30;54349;52.528;19.760;2023-04-22T04:42:46;23.25;38.60
67502;SHT30;54349;52.528;19.760;2023-04-22T04:45:20;23.25;38.58
67502;SHT30;54349;52.528;19.760;2023-04-22T04:47:49;23.24;38.56
67502;SHT30;54349;52.528;19.760;2023-04-22T04:50:23;23.24;38.60
67502;SHT30;54349;52.528;19.760;2023-04-22T04:52:58;23.23;38.60
67502;SHT30;54349;52.528;19.760;2023-04-22T04:55:34;23.21;38.60
67502;SHT30;54349;52.528;19.760;2023-04-22T04:58:07;23.19;38.63
67502;SHT30;54349;52.528;19.760;2023-04-22T05:00:35;23.19;38.60
67502;SHT30;54349;52.528;19.760;2023-04-22T05:03:03;23.18;38.61
67502;SHT30;54349;52.528;19.760;2023-04-22T05:05:33;23.17;38.61
67502;SHT30;54349;52.528;19.760;2023-04-22T05:08:01;23.15;38.62
67502;SHT30;54349;52.528;19.760;2023-04-22T05:10:30;23.14;38.65
67502;SHT30;54349;52.528;19.760;2023-04-22T05:12:58;23.13;38.65
67502;SHT30;54349;52.528;19.760;2023-04-22T05:15:31;23.11;38.61
67502;SHT30;54349;52.528;19.760;2023-04-22T05:17:59;23.11;38.60
67502;SHT30;54349;52.528;19.760;2023-04-22T05:20:27;23.10;38.60
67502;SHT30;54349;52.528;19.760;2023-04-22T05:22:56;23.08;38.61
67502;SHT30;54349;52.528;19.760;2023-04-22T05:25:25;23.07;38.58
67502;SHT30;54349;52.528;19.760;2023-04-22T05:27:58;23.08;38.59
67502;SHT30;54349;52.528;19.760;2023-04-22T05:30:28;23.06;38.59
67502;SHT30;54349;52.528;19.760;2023-04-22T05:32:56;23.05;38.56
67502;SHT30;54349;52.528;19.760;2023-04-22T05:35:25;23.05;38.58
67502;SHT30;54349;52.528;19.760;2023-04-22T05:37:54;23.04;38.58
67502;SHT30;54349;52.528;19.760;2023-04-22T05:40:22;23.04;38.60
67502;SHT30;54349;52.528;19.760;2023-04-22T05:42:51;23.03;38.56
67502;SHT30;54349;52.528;19.760;2023-04-22T05:45:20;23.02;38.60
67502;SHT30;54349;52.528;19.760;2023-04-22T05:47:49;23.01;38.60
67502;SHT30;54349;52.528;19.760;2023-04-22T05:50:18;23.01;38.60
67502;SHT30;54349;52.528;19.760;2023-04-22T05:52:54;23.00;38.60
67502;SHT30;54349;52.528;19.760;2023-04-22T05:55:23;22.99;38.60
67502;SHT30;54349;52.528;19.760;2023-04-22T05:57:52;22.99;38.59
67502;SHT30;54349;52.528;19.760;2023-04-22T06:00:44;22.98;38.62
67502;SHT30;54349;52.528;19.760;2023-04-22T06:03:42;22.98;38.60
67502;SHT30;54349;52.528;19.760;2023-04-22T06:06:12;22.97;38.59
67502;SHT30;54349;52.528;19.760;2023-04-22T06:08:40;22.98;38.60
67502;SHT30;54349;52.528;19.760;2023-04-22T06:11:10;22.97;38.59
67502;SHT30;54349;52.528;19.760;2023-04-22T06:13:38;22.97;38.60
67502;SHT30;54349;52.528;19.760;2023-04-22T06:16:07;22.96;38.60
67502;SHT30;54349;52.528;19.760;2023-04-22T06:18:36;22.95;38.61
67502;SHT30;54349;52.528;19.760;2023-04-22T06:21:07;22.95;38.60
67502;SHT30;54349;52.528;19.760;2023-04-22T06:23:36;22.94;38.60
67502;SHT30;54349;52.528;19.760;2023-04-22T06:26:04;22.94;38.75
67502;SHT30;54349;52.528;19.760;2023-04-22T06:28:33;22.94;38.89
67502;SHT30;54349;52.528;19.760;2023-04-22T06:31:05;22.93;39.04
67502;SHT30;54349;52.528;19.760;2023-04-22T06:33:33;22.94;39.21
67502;SHT30;54349;52.528;19.760;2023-04-22T06:36:02;22.93;39.34
67502;SHT30;54349;52.528;19.760;2023-04-22T06:38:32;22.93;39.49
67502;SHT30;54349;52.528;19.760;2023-04-22T06:41:23;22.93;39.67
67502;SHT30;54349;52.528;19.760;2023-04-22T06:43:54;22.93;39.77
67502;SHT30;54349;52.528;19.760;2023-04-22T06:46:40;22.94;39.97
67502;SHT30;54349;52.528;19.760;2023-04-22T06:49:18;22.93;40.08
67502;SHT30;54349;52.528;19.760;2023-04-22T06:52:16;22.94;40.23
67502;SHT30;54349;52.528;19.760;2023-04-22T06:54:44;22.94;40.33
67502;SHT30;54349;52.528;19.760;2023-04-22T06:57:12;22.94;40.38
67502;SHT30;54349;52.528;19.760;2023-04-22T06:59:41;22.94;40.52
67502;SHT30;54349;52.528;19.760;2023-04-22T07:02:13;22.95;40.61
67502;SHT30;54349;52.528;19.760;2023-04-22T07:04:43;22.95;40.66
67502;SHT30;54349;52.528;19.760;2023-04-22T07:07:12;22.94;40.71
67502;SHT30;54349;52.528;19.760;2023-04-22T07:09:40;22.95;40.70
67502;SHT30;54349;52.528;19.760;2023-04-22T07:12:09;22.96;40.76
67502;SHT30;54349;52.528;19.760;2023-04-22T07:14:41;22.95;40.85
67502;SHT30;54349;52.528;19.760;2023-04-22T07:17:11;22.95;40.87
67502;SHT30;54349;52.528;19.760;2023-04-22T07:19:39;22.96;40.87
67502;SHT30;54349;52.528;19.760;2023-04-22T07:22:09;22.95;40.83
67502;SHT30;54349;52.528;19.760;2023-04-22T07:24:37;22.95;40.82
67502;SHT30;54349;52.528;19.760;2023-04-22T07:27:06;22.96;40.81
67502;SHT30;54349;52.528;19.760;2023-04-22T07:29:34;22.96;40.79
67502;SHT30;54349;52.528;19.760;2023-04-22T07:32:03;22.96;41.10
67502;SHT30;54349;52.528;19.760;2023-04-22T07:34:32;22.99;41.51
67502;SHT30;54349;52.528;19.760;2023-04-22T07:37:00;23.00;41.71
67502;SHT30;54349;52.528;19.760;2023-04-22T07:39:28;23.01;41.81
67502;SHT30;54349;52.528;19.760;2023-04-22T07:41:57;23.00;41.82
67502;SHT30;54349;52.528;19.760;2023-04-22T07:44:26;23.00;41.85
67502;SHT30;54349;52.528;19.760;2023-04-22T07:46:59;23.01;41.76
67502;SHT30;54349;52.528;19.760;2023-04-22T07:49:27;23.00;41.70
67502;SHT30;54349;52.528;19.760;2023-04-22T07:51:56;23.00;41.70
67502;SHT30;54349;52.528;19.760;2023-04-22T07:54:24;23.01;41.81
67502;SHT30;54349;52.528;19.760;2023-04-22T07:56:52;23.00;41.89
67502;SHT30;54349;52.528;19.760;2023-04-22T07:59:21;23.01;42.03
67502;SHT30;54349;52.528;19.760;2023-04-22T08:01:49;23.01;41.99
67502;SHT30;54349;52.528;19.760;2023-04-22T08:04:18;23.01;41.93
67502;SHT30;54349;52.528;19.760;2023-04-22T08:06:50;23.02;41.88
67502;SHT30;54349;52.528;19.760;2023-04-22T08:09:18;23.02;41.85
67502;SHT30;54349;52.528;19.760;2023-04-22T08:11:47;23.02;41.82
67502;SHT30;54349;52.528;19.760;2023-04-22T08:14:15;23.02;41.82
67502;SHT30;54349;52.528;19.760;2023-04-22T08:16:43;23.03;41.91
67502;SHT30;54349;52.528;19.760;2023-04-22T08:19:12;23.03;42.00
67502;SHT30;54349;52.528;19.760;2023-04-22T08:21:40;23.04;42.46
67502;SHT30;54349;52.528;19.760;2023-04-22T08:24:09;23.07;42.74
67502;SHT30;54349;52.528;19.760;2023-04-22T08:26:37;23.09;43.21
67502;SHT30;54349;52.528;19.760;2023-04-22T08:29:06;23.11;43.62
67502;SHT30;54349;52.528;19.760;2023-04-22T08:31:36;23.13;43.70
67502;SHT30;54349;52.528;19.760;2023-04-22T08:34:37;23.16;43.69
67502;SHT30;54349;52.528;19.760;2023-04-22T08:37:11;23.18;43.87
67502;SHT30;54349;52.528;19.760;2023-04-22T08:39:41;23.19;43.71
67502;SHT30;54349;52.528;19.760;2023-04-22T08:42:09;23.20;43.52
67502;SHT30;54349;52.528;19.760;2023-04-22T08:44:41;23.20;43.61
67502;SHT30;54349;52.528;19.760;2023-04-22T08:47:13;23.20;43.01
67502;SHT30;54349;52.528;19.760;2023-04-22T08:49:44;23.21;43.05
67502;SHT30;54349;52.528;19.760;2023-04-22T08:52:13;23.22;42.92
67502;SHT30;54349;52.528;19.760;2023-04-22T08:54:42;23.21;43.11
67502;SHT30;54349;52.528;19.760;2023-04-22T08:57:10;23.22;43.43
67502;SHT30;54349;52.528;19.760;2023-04-22T08:59:41;23.22;43.22
67502;SHT30;54349;52.528;19.760;2023-04-22T09:02:12;23.24;43.76
67502;SHT30;54349;52.528;19.760;2023-04-22T09:04:48;23.24;44.93
67502;SHT30;54349;52.528;19.760;2023-04-22T09:07:23;23.25;45.49
67502;SHT30;54349;52.528;19.760;2023-04-22T09:09:55;23.26;45.59
67502;SHT30;54349;52.528;19.760;2023-04-22T09:12:24;23.26;45.59
67502;SHT30;54349;52.528;19.760;2023-04-22T09:14:55;23.27;45.66
67502;SHT30;54349;52.528;19.760;2023-04-22T09:17:30;23.28;45.48
67502;SHT30;54349;52.528;19.760;2023-04-22T09:20:02;23.29;45.96
67502;SHT30;54349;52.528;19.760;2023-04-22T09:22:41;23.30;46.01
67502;SHT30;54349;52.528;19.760;2023-04-22T09:25:14;23.31;45.71
67502;SHT30;54349;52.528;19.760;2023-04-22T09:27:48;23.32;45.77
67502;SHT30;54349;52.528;19.760;2023-04-22T09:30:24;23.33;45.75
67502;SHT30;54349;52.528;19.760;2023-04-22T09:33:05;23.34;45.66
67502;SHT30;54349;52.528;19.760;2023-04-22T09:35:38;23.35;45.80
67502;SHT30;54349;52.528;19.760;2023-04-22T09:38:11;23.37;45.73
67502;SHT30;54349;52.528;19.760;2023-04-22T09:40:40;23.38;44.96
67502;SHT30;54349;52.528;19.760;2023-04-22T09:43:11;23.38;45.01
67502;SHT30;54349;52.528;19.760;2023-04-22T09:45:44;23.40;45.03
67502;SHT30;54349;52.528;19.760;2023-04-22T09:48:16;23.40;45.04
67502;SHT30;54349;52.528;19.760;2023-04-22T09:50:47;23.42;45.09
67502;SHT30;54349;52.528;19.760;2023-04-22T09:53:19;23.43;45.15
67502;SHT30;54349;52.528;19.760;2023-04-22T09:55:49;23.45;45.14
67502;SHT30;54349;52.528;19.760;2023-04-22T09:58:20;23.47;45.25
67502;SHT30;54349;52.528;19.760;2023-04-22T10:00:56;23.48;45.24
67502;SHT30;54349;52.528;19.760;2023-04-22T10:03:26;23.49;45.17
67502;SHT30;54349;52.528;19.760;2023-04-22T10:05:54;23.51;45.15
67502;SHT30;54349;52.528;19.760;2023-04-22T10:08:27;23.53;44.98
67502;SHT30;54349;52.528;19.760;2023-04-22T10:10:59;23.55;44.94
67502;SHT30;54349;52.528;19.760;2023-04-22T10:13:28;23.56;44.90
67502;SHT30;54349;52.528;19.760;2023-04-22T10:15:56;23.58;44.77
67502;SHT30;54349;52.528;19.760;2023-04-22T10:18:26;23.60;44.65
67502;SHT30;54349;52.528;19.760;2023-04-22T10:20:56;23.62;44.56
67502;SHT30;54349;52.528;19.760;2023-04-22T10:23:28;23.63;44.41
67502;SHT30;54349;52.528;19.760;2023-04-22T10:26:00;23.65;44.19
67502;SHT30;54349;52.528;19.760;2023-04-22T10:28:32;23.67;44.01
67502;SHT30;54349;52.528;19.760;2023-04-22T10:31:04;23.69;44.00
67502;SHT30;54349;52.528;19.760;2023-04-22T10:33:36;23.71;44.00
67502;SHT30;54349;52.528;19.760;2023-04-22T10:41:24;23.79;44.03
67502;SHT30;54349;52.528;19.760;2023-04-22T10:43:58;23.82;43.95
67502;SHT30;54349;52.528;19.760;2023-04-22T10:49:10;23.87;42.31
67502;SHT30;54349;52.528;19.760;2023-04-22T10:51:45;23.91;41.74
67502;SHT30;54349;52.528;19.760;2023-04-22T10:59:51;24.01;42.18
67502;SHT30;54349;52.528;19.760;2023-04-22T11:02:23;24.05;41.90
67502;SHT30;54349;52.528;19.760;2023-04-22T11:05:16;24.08;41.63
67502;SHT30;54349;52.528;19.760;2023-04-22T11:07:55;24.14;41.00
67502;SHT30;54349;52.528;19.760;2023-04-22T11:10:39;24.17;40.15
67502;SHT30;54349;52.528;19.760;2023-04-22T11:13:19;24.22;40.35
67502;SHT30;54349;52.528;19.760;2023-04-22T11:15:53;24.25;39.93
67502;SHT30;54349;52.528;19.760;2023-04-22T11:18:24;24.28;40.29
67502;SHT30;54349;52.528;19.760;2023-04-22T11:20:54;24.31;40.34
67502;SHT30;54349;52.528;19.760;2023-04-22T11:23:24;24.34;40.33
67502;SHT30;54349;52.528;19.760;2023-04-22T11:25:56;24.36;40.33
67502;SHT30;54349;52.528;19.760;2023-04-22T11:28:27;24.40;40.35
67502;SHT30;54349;52.528;19.760;2023-04-22T11:31:06;24.43;40.39
67502;SHT30;54349;52.528;19.760;2023-04-22T11:33:38;24.46;40.28
67502;SHT30;54349;52.528;19.760;2023-04-22T11:36:10;24.50;39.38
67502;SHT30;54349;52.528;19.760;2023-04-22T11:38:40;24.53;39.03
67502;SHT30;54349;52.528;19.760;2023-04-22T11:41:08;24.57;39.09
67502;SHT30;54349;52.528;19.760;2023-04-22T11:43:44;24.58;39.42
67502;SHT30;54349;52.528;19.760;2023-04-22T11:46:14;24.62;39.50
67502;SHT30;54349;52.528;19.760;2023-04-22T11:49:15;24.65;39.05
67502;SHT30;54349;52.528;19.760;2023-04-22T11:51:53;24.67;39.41
67502;SHT30;54349;52.528;19.760;2023-04-22T11:54:43;24.67;40.13
67502;SHT30;54349;52.528;19.760;2023-04-22T11:57:12;24.69;40.94
67502;SHT30;54349;52.528;19.760;2023-04-22T11:59:42;24.70;41.00
67502;SHT30;54349;52.528;19.760;2023-04-22T12:02:11;24.72;41.37
67502;SHT30;54349;52.528;19.760;2023-04-22T12:04:41;24.74;41.57
67502;SHT30;54349;52.528;19.760;2023-04-22T12:07:10;24.76;41.48
67502;SHT30;54349;52.528;19.760;2023-04-22T12:09:39;24.77;41.17
67502;SHT30;54349;52.528;19.760;2023-04-22T12:12:09;24.78;40.73
67502;SHT30;54349;52.528;19.760;2023-04-22T12:14:37;24.78;40.23
67502;SHT30;54349;52.528;19.760;2023-04-22T12:17:08;24.80;40.16
67502;SHT30;54349;52.528;19.760;2023-04-22T12:19:40;24.83;40.36
67502;SHT30;54349;52.528;19.760;2023-04-22T12:22:25;24.85;40.29
67502;SHT30;54349;52.528;19.760;2023-04-22T12:24:58;24.87;39.96
67502;SHT30;54349;52.528;19.760;2023-04-22T12:27:29;24.88;39.84
67502;SHT30;54349;52.528;19.760;2023-04-22T12:29:58;24.91;39.84
67502;SHT30;54349;52.528;19.760;2023-04-22T12:32:29;24.91;39.89
67502;SHT30;54349;52.528;19.760;2023-04-22T12:34:57;24.93;39.79
67502;SHT30;54349;52.528;19.760;2023-04-22T12:37:26;24.94;39.99
67502;SHT30;54349;52.528;19.760;2023-04-22T12:39:56;24.95;40.03
67502;SHT30;54349;52.528;19.760;2023-04-22T12:42:25;24.96;39.66
67502;SHT30;54349;52.528;19.760;2023-04-22T12:44:53;24.98;39.44
67502;SHT30;54349;52.528;19.760;2023-04-22T12:47:22;24.99;39.40
67502;SHT30;54349;52.528;19.760;2023-04-22T12:49:55;24.99;39.36
67502;SHT30;54349;52.528;19.760;2023-04-22T12:52:25;25.01;39.39
67502;SHT30;54349;52.528;19.760;2023-04-22T12:54:55;25.02;39.23
67502;SHT30;54349;52.528;19.760;2023-04-22T12:57:24;25.04;39.17
67502;SHT30;54349;52.528;19.760;2023-04-22T12:59:57;25.05;38.99
67502;SHT30;54349;52.528;19.760;2023-04-22T13:02:28;25.04;38.92
67502;SHT30;54349;52.528;19.760;2023-04-22T13:04:58;25.07;38.78
67502;SHT30;54349;52.528;19.760;2023-04-22T13:07:30;25.08;38.48
67502;SHT30;54349;52.528;19.760;2023-04-22T13:10:27;25.12;38.27
67502;SHT30;54349;52.528;19.760;2023-04-22T13:12:59;25.17;38.79
67502;SHT30;54349;52.528;19.760;2023-04-22T13:15:34;25.24;38.80
67502;SHT30;54349;52.528;19.760;2023-04-22T13:18:04;25.28;38.73
67502;SHT30;54349;52.528;19.760;2023-04-22T13:20:34;25.33;38.71
67502;SHT30;54349;52.528;19.760;2023-04-22T13:23:02;25.36;38.66
67502;SHT30;54349;52.528;19.760;2023-04-22T13:25:31;25.39;38.58
67502;SHT30;54349;52.528;19.760;2023-04-22T13:28:01;25.42;38.56
67502;SHT30;54349;52.528;19.760;2023-04-22T13:30:31;25.46;38.48
67502;SHT30;54349;52.528;19.760;2023-04-22T13:33:00;25.49;38.49
67502;SHT30;54349;52.528;19.760;2023-04-22T13:35:29;25.50;38.44
67502;SHT30;54349;52.528;19.760;2023-04-22T13:38:00;25.53;38.37
67502;SHT30;54349;52.528;19.760;2023-04-22T13:40:32;25.55;38.35
67502;SHT30;54349;52.528;19.760;2023-04-22T13:43:08;25.58;38.32
67502;SHT30;54349;52.528;19.760;2023-04-22T13:45:39;25.60;38.26
67502;SHT30;54349;52.528;19.760;2023-04-22T13:48:09;25.63;38.22
67502;SHT30;54349;52.528;19.760;2023-04-22T13:50:37;25.65;38.18
67502;SHT30;54349;52.528;19.760;2023-04-22T13:53:09;25.66;38.11
67502;SHT30;54349;52.528;19.760;2023-04-22T13:55:38;25.68;38.02
67502;SHT30;54349;52.528;19.760;2023-04-22T13:58:07;25.69;38.01
67502;SHT30;54349;52.528;19.760;2023-04-22T14:00:35;25.72;37.93
67502;SHT30;54349;52.528;19.760;2023-04-22T14:03:03;25.74;37.85
67502;SHT30;54349;52.528;19.760;2023-04-22T14:05:32;25.75;37.81
67502;SHT30;54349;52.528;19.760;2023-04-22T14:08:00;25.77;37.78
67502;SHT30;54349;52.528;19.760;2023-04-22T14:10:28;25.78;37.73
67502;SHT30;54349;52.528;19.760;2023-04-22T14:12:57;25.80;37.71
67502;SHT30;54349;52.528;19.760;2023-04-22T14:15:26;25.81;37.65
67502;SHT30;54349;52.528;19.760;2023-04-22T14:17:54;25.84;37.60
67502;SHT30;54349;52.528;19.760;2023-04-22T14:20:22;25.84;37.56
67502;SHT30;54349;52.528;19.760;2023-04-22T14:22:54;25.85;37.46
67502;SHT30;54349;52.528;19.760;2023-04-22T14:25:22;25.86;37.41
67502;SHT30;54349;52.528;19.760;2023-04-22T14:27:50;25.88;37.39
67502;SHT30;54349;52.528;19.760;2023-04-22T14:30:19;25.89;37.33
67502;SHT30;54349;52.528;19.760;2023-04-22T14:32:48;25.90;37.30
67502;SHT30;54349;52.528;19.760;2023-04-22T14:35:17;25.92;37.23
67502;SHT30;54349;52.528;19.760;2023-04-22T14:37:46;25.93;37.22
67502;SHT30;54349;52.528;19.760;2023-04-22T14:40:14;25.94;37.15
67502;SHT30;54349;52.528;19.760;2023-04-22T14:42:45;25.96;37.09
67502;SHT30;54349;52.528;19.760;2023-04-22T14:45:14;25.96;37.05
67502;SHT30;54349;52.528;19.760;2023-04-22T14:47:42;25.98;37.00
67502;SHT30;54349;52.528;19.760;2023-04-22T14:50:10;25.99;36.90
67502;SHT30;54349;52.528;19.760;2023-04-22T14:52:38;25.99;36.89
67502;SHT30;54349;52.528;19.760;2023-04-22T14:55:06;26.00;36.87
67502;SHT30;54349;52.528;19.760;2023-04-22T14:57:49;26.02;36.87
67502;SHT30;54349;52.528;19.760;2023-04-22T15:00:20;26.03;36.87
67502;SHT30;54349;52.528;19.760;2023-04-22T15:02:49;26.03;36.84
67502;SHT30;54349;52.528;19.760;2023-04-22T15:05:17;26.05;36.84
67502;SHT30;54349;52.528;19.760;2023-04-22T15:07:46;26.05;36.81
67502;SHT30;54349;52.528;19.760;2023-04-22T15:10:14;26.06;36.83
67502;SHT30;54349;52.528;19.760;2023-04-22T15:12:43;26.06;36.80
67502;SHT30;54349;52.528;19.760;2023-04-22T15:15:12;26.07;36.80
67502;SHT30;54349;52.528;19.760;2023-04-22T15:17:42;26.08;36.73
67502;SHT30;54349;52.528;19.760;2023-04-22T15:20:12;26.09;36.68
67502;SHT30;54349;52.528;19.760;2023-04-22T15:22:42;26.10;36.71
67502;SHT30;54349;52.528;19.760;2023-04-22T15:25:11;26.11;36.67
67502;SHT30;54349;52.528;19.760;2023-04-22T15:27:39;26.12;36.64
67502;SHT30;54349;52.528;19.760;2023-04-22T15:30:07;26.12;36.64
67502;SHT30;54349;52.528;19.760;2023-04-22T15:32:37;26.12;36.63
67502;SHT30;54349;52.528;19.760;2023-04-22T15:35:06;26.14;36.61
67502;SHT30;54349;52.528;19.760;2023-04-22T15:37:35;26.14;36.58
67502;SHT30;54349;52.528;19.760;2023-04-22T15:40:03;26.14;36.57
67502;SHT30;54349;52.528;19.760;2023-04-22T15:42:33;26.15;36.55
67502;SHT30;54349;52.528;19.760;2023-04-22T15:45:01;26.15;36.54
67502;SHT30;54349;52.528;19.760;2023-04-22T15:47:30;26.16;36.50
67502;SHT30;54349;52.528;19.760;2023-04-22T15:50:02;26.15;36.48